Time;durP1;ratioP1;P1;durP2;ratioP2;P2;SDS_P1;SDS_P2;PMS_P1;PMS_P2;Temp;Humidity;BMP_temperature;BMP_pressure;BME280_temperature;BME280_humidity;BME280_pressure;Samples;Min_cycle;Max_cycle;Signal;HPM_P1;HPM_P2
2022/05/27 00:00:24;;;;;;;2.42;1.40;;;17.60;99.20;;;17.77;67.49;101433.31;5158153;28;20078;-87
2022/05/27 00:02:56;;;;;;;2.30;1.80;;;17.50;99.30;;;17.77;67.73;101432.44;5153762;28;20421;-84
2022/05/27 00:05:29;;;;;;;2.35;1.60;;;17.50;99.40;;;17.78;68.09;101435.09;5157976;28;20046;-85
2022/05/27 00:08:01;;;;;;;2.00;1.60;;;17.50;99.60;;;17.78;67.99;101434.22;5181006;28;20493;-84
2022/05/27 00:10:34;;;;;;;2.50;1.80;;;17.50;99.60;;;17.75;68.30;101428.91;5178581;28;20405;-84
2022/05/27 00:13:06;;;;;;;2.38;1.50;;;17.50;99.80;;;17.75;68.52;101434.19;5183806;28;20077;-84
2022/05/27 00:15:39;;;;;;;1.95;1.45;;;17.50;99.80;;;17.77;68.50;101424.53;5177322;28;20049;-86
2022/05/27 00:18:11;;;;;;;2.08;1.17;;;17.50;99.90;;;17.86;68.28;101424.66;5173305;28;20046;-83
2022/05/27 00:20:45;;;;;;;3.30;1.27;;;17.50;99.90;;;17.87;68.20;101426.47;5177403;28;20142;-85
2022/05/27 00:23:18;;;;;;;2.83;1.40;;;17.60;99.90;;;17.93;67.86;101429.19;5176239;28;20129;-85
2022/05/27 00:25:50;;;;;;;1.98;1.23;;;17.60;99.80;;;17.96;67.70;101430.97;5176474;28;20046;-82
2022/05/27 00:28:22;;;;;;;3.00;1.23;;;17.70;99.80;;;17.99;67.59;101423.97;5176654;28;20054;-84
2022/05/27 00:30:54;;;;;;;2.13;1.30;;;17.60;99.70;;;18.02;67.46;101423.16;5169742;28;20135;-84
2022/05/27 00:33:26;;;;;;;2.40;1.60;;;17.70;99.60;;;18.06;67.18;101422.31;5176657;28;20056;-84
2022/05/27 00:36:00;;;;;;;2.38;1.50;;;17.70;99.50;;;18.08;67.20;101429.41;5176338;28;20412;-84
2022/05/27 00:38:32;;;;;;;1.85;1.23;;;17.80;99.50;;;18.10;67.09;101422.38;5174363;28;20062;-85
2022/05/27 00:41:04;;;;;;;2.65;1.20;;;17.80;99.40;;;18.08;66.88;101424.13;5175983;28;20054;-84
2022/05/27 00:43:37;;;;;;;2.80;1.52;;;17.80;99.40;;;18.00;67.02;101427.53;5175369;28;20046;-86
2022/05/27 00:46:16;;;;;;;2.03;1.50;;;17.70;99.30;;;17.97;67.14;101420.44;5181130;28;20046;-86
2022/05/27 00:48:52;;;;;;;2.85;1.25;;;17.60;99.40;;;17.98;66.82;101426.59;5173068;28;20046;-84
2022/05/27 00:51:30;;;;;;;1.33;1.23;;;17.60;99.30;;;17.98;67.10;101426.59;5183211;28;20050;-85
2022/05/27 00:54:09;;;;;;;1.77;1.10;;;17.70;99.40;;;17.95;67.29;101424.81;5181450;28;20121;-84
2022/05/27 00:56:46;;;;;;;1.75;0.95;;;17.60;99.40;;;17.96;67.27;101418.66;5164549;28;20047;-85
2022/05/27 00:59:22;;;;;;;1.27;1.08;;;17.60;99.50;;;17.96;67.36;101416.03;5176277;28;20049;-84
2022/05/27 01:01:54;;;;;;;1.63;1.20;;;17.60;99.60;;;17.97;67.61;101414.28;5172693;28;20052;-85
2022/05/27 01:04:29;;;;;;;1.85;1.17;;;17.60;99.70;;;17.96;67.98;101418.66;5172396;28;20050;-85
2022/05/27 01:07:04;;;;;;;1.20;1.02;;;17.60;99.80;;;17.94;67.93;101415.13;5161934;28;20058;-84
2022/05/27 01:09:40;;;;;;;1.45;0.82;;;17.60;99.90;;;17.93;68.08;101402.81;5173912;28;20054;-83
2022/05/27 01:12:47;;;;;;;1.45;0.88;;;17.60;99.90;;;17.96;67.93;101413.41;5174143;28;20054;-84
2022/05/27 01:15:31;;;;;;;1.55;1.20;;;17.60;99.90;;;17.99;67.86;101402.88;5169648;28;20145;-86
2022/05/27 01:20:18;;;;;;;1.40;1.30;;;17.60;99.90;;;18.01;68.04;101410.84;5169649;28;20057;-86
2022/05/27 01:21:31;;;;;;;1.67;0.85;;;17.60;99.90;;;18.00;68.14;101415.22;5170779;28;20057;-85
2022/05/27 01:24:42;;;;;;;1.63;0.93;;;17.60;99.90;;;18.00;68.16;101402.03;5173480;28;20485;-84
2022/05/27 01:27:41;;;;;;;1.13;0.90;;;17.60;99.90;;;17.98;67.90;101401.09;5171038;28;20039;-84
2022/05/27 01:30:23;;;;;;;1.30;1.20;;;17.60;99.90;;;17.95;68.30;101401.06;5172917;28;20524;-86
2022/05/27 01:33:17;;;;;;;1.95;1.23;;;17.60;99.90;;;17.93;68.19;101396.63;5173484;28;20053;-85
2022/05/27 01:36:04;;;;;;;1.50;1.20;;;17.60;99.90;;;17.93;68.23;101397.53;5169991;28;20046;-84
2022/05/27 01:38:44;;;;;;;2.47;1.30;;;17.60;99.90;;;17.93;68.11;101393.97;5173411;28;20046;-85
2022/05/27 01:41:26;;;;;;;2.47;1.33;;;17.60;99.90;;;17.92;68.36;101395.75;5173619;28;20057;-85
2022/05/27 01:44:03;;;;;;;1.70;1.30;;;17.60;99.90;;;17.87;68.47;101402.72;5174058;28;20061;-84
2022/05/27 01:46:39;;;;;;;1.58;1.35;;;17.50;99.90;;;17.83;68.63;101403.53;5174187;28;20046;-85
2022/05/27 01:49:26;;;;;;;1.67;1.02;;;17.50;99.90;;;17.81;68.84;101395.59;5173568;28;20050;-85
2022/05/27 01:52:07;;;;;;;2.00;1.33;;;17.50;99.90;;;17.82;68.74;101394.75;5174444;28;20050;-85
2022/05/27 01:54:47;;;;;;;1.45;1.35;;;17.50;99.90;;;17.81;68.66;101392.09;5174904;28;20048;-84
2022/05/27 01:57:26;;;;;;;1.95;1.70;;;17.50;99.90;;;17.75;68.67;101382.31;5174226;28;20058;-86
2022/05/27 02:00:07;;;;;;;2.70;1.80;;;17.50;99.90;;;17.70;68.55;101383.09;5174518;28;20057;-85
2022/05/27 02:02:45;;;;;;;2.28;1.55;;;17.40;99.90;;;17.68;68.85;101382.19;5176962;28;20054;-85
2022/05/27 02:05:26;;;;;;;3.88;1.83;;;17.40;99.90;;;17.66;68.95;101381.25;5178852;28;20054;-86
2022/05/27 02:08:02;;;;;;;2.17;1.52;;;17.40;99.90;;;17.58;69.18;101379.38;5179778;28;20082;-84
2022/05/27 02:10:39;;;;;;;2.97;1.42;;;17.30;99.90;;;17.55;69.45;101376.72;5171735;28;20114;-86
2022/05/27 02:13:16;;;;;;;2.83;1.73;;;17.30;99.90;;;17.54;69.14;101361.78;5171568;28;20046;-85
2022/05/27 02:15:52;;;;;;;4.80;2.20;;;17.30;99.90;;;17.49;69.30;101371.34;5188660;28;20050;-84
2022/05/27 02:18:31;;;;;;;2.53;1.77;;;17.20;99.90;;;17.41;69.45;101367.72;5192860;28;20058;-86
2022/05/27 02:21:07;;;;;;;3.35;1.60;;;17.20;99.90;;;17.38;69.92;101365.00;5193687;28;20056;-84
2022/05/27 02:23:45;;;;;;;3.35;1.98;;;17.10;99.90;;;17.34;69.79;101360.53;5193817;28;20396;-85
2022/05/27 02:26:23;;;;;;;4.40;2.10;;;17.10;99.90;;;17.31;70.07;101368.41;5194183;28;20408;-85
2022/05/27 02:29:02;;;;;;;3.03;1.85;;;17.00;99.90;;;17.31;70.34;101363.16;5173330;28;20050;-86
2022/05/27 02:31:38;;;;;;;2.63;1.48;;;17.10;99.90;;;17.36;70.36;101369.38;5171237;28;20416;-86
2022/05/27 02:37:11;;;;;;;1.88;1.17;;;17.10;99.90;;;17.44;70.36;101354.56;5170922;28;20104;-84
2022/05/27 02:39:43;;;;;;;1.85;1.40;;;17.10;99.90;;;17.46;70.13;101360.75;5170816;28;20062;-84
2022/05/27 02:42:22;;;;;;;1.83;1.27;;;17.20;99.90;;;17.48;69.91;101356.41;5174458;28;20436;-85
2022/05/27 02:45:04;;;;;;;2.15;1.42;;;17.20;99.90;;;17.47;69.82;101348.44;5192790;28;20054;-85
2022/05/27 02:47:46;;;;;;;2.75;1.40;;;17.20;99.90;;;17.45;69.71;101360.72;5190525;28;20050;-85
2022/05/27 02:50:27;;;;;;;2.95;1.60;;;17.20;99.90;;;17.45;69.89;101361.63;5189459;28;20135;-85
2022/05/27 02:53:07;;;;;;;1.63;1.52;;;17.20;99.90;;;17.48;69.57;101364.31;5189887;28;20137;-85
2022/05/27 02:55:51;;;;;;;2.15;1.38;;;17.20;99.90;;;17.49;69.47;101362.56;5189823;28;20050;-85
2022/05/27 02:58:24;;;;;;;3.25;1.70;;;17.20;99.90;;;17.38;69.82;101359.75;5189837;28;20049;-86
2022/05/27 03:00:55;;;;;;;2.97;1.40;;;17.10;99.90;;;17.26;70.10;101359.53;5189806;28;20050;-85
2022/05/27 03:03:27;;;;;;;2.42;1.85;;;17.00;99.90;;;17.19;70.77;101370.84;5189536;28;20064;-84
2022/05/27 03:06:26;;;;;;;3.13;1.70;;;16.90;99.90;;;17.09;71.02;101367.19;5189378;28;20046;-85
2022/05/27 03:09:06;;;;;;;6.20;1.85;;;16.90;99.90;;;16.99;71.31;101360.84;5190221;28;20046;-85
2022/05/27 03:11:51;;;;;;;2.67;1.65;;;16.80;99.90;;;16.92;71.86;101353.72;5196872;28;20056;-86
2022/05/27 03:14:43;;;;;;;1.80;1.30;;;16.70;99.90;;;16.84;72.53;101349.16;5193461;28;20080;-86
2022/05/27 03:17:29;;;;;;;2.20;1.80;;;16.70;99.90;;;16.79;72.72;101363.13;5193393;28;20411;-86
2022/05/27 03:20:31;;;;;;;2.38;1.20;;;16.60;99.90;;;16.71;73.63;101359.47;5191938;28;20492;-85
2022/05/27 03:23:20;;;;;;;1.77;1.35;;;16.50;99.90;;;16.74;73.69;101353.38;5192353;28;20046;-85
2022/05/27 03:25:59;;;;;;;3.17;1.50;;;16.50;99.90;;;16.75;74.15;101360.41;5192696;28;20056;-85
2022/05/27 03:28:41;;;;;;;2.45;1.73;;;16.50;99.90;;;16.75;74.18;101360.41;5191513;28;20054;-86
2022/05/27 03:31:23;;;;;;;2.70;1.35;;;16.50;99.90;;;16.72;74.82;101368.25;5193780;28;20056;-84
2022/05/27 03:34:06;;;;;;;3.08;1.02;;;16.50;99.90;;;16.73;74.91;101362.13;5193865;28;20424;-84
2022/05/27 03:36:44;;;;;;;2.03;1.45;;;16.50;99.90;;;16.74;75.58;101374.44;5194099;28;20064;-84
2022/05/27 03:39:23;;;;;;;2.95;1.20;;;16.50;99.90;;;16.71;75.90;101369.13;5193177;28;20046;-83
2022/05/27 03:42:01;;;;;;;1.92;1.20;;;16.50;99.90;;;16.65;76.52;101367.22;5194027;28;20069;-84
2022/05/27 03:44:33;;;;;;;3.38;1.38;;;16.50;99.90;;;16.58;76.95;101356.56;5194265;28;20580;-85
2022/05/27 03:47:06;;;;;;;1.30;1.20;;;16.40;99.90;;;16.55;77.47;101365.25;5194095;28;20109;-84
2022/05/27 03:49:38;;;;;;;2.45;1.45;;;16.40;99.90;;;16.58;77.81;101367.06;5194415;28;20053;-84
2022/05/27 03:52:18;;;;;;;2.47;1.42;;;16.40;99.90;;;16.57;78.13;101367.94;5197184;28;20389;-85
2022/05/27 03:54:51;;;;;;;1.33;1.23;;;16.30;99.90;;;16.57;78.66;101360.03;5199701;28;20480;-84
2022/05/27 03:57:23;;;;;;;3.50;1.27;;;16.40;99.90;;;16.58;78.96;101367.06;5200326;28;20052;-84
2022/05/27 03:59:55;;;;;;;2.20;0.98;;;16.30;99.90;;;16.59;79.06;101368.84;5200267;28;20078;-85
2022/05/27 04:02:27;;;;;;;1.23;1.13;;;16.40;99.90;;;16.61;79.10;101368.00;5200428;28;20049;-84
2022/05/27 04:04:59;;;;;;;1.25;1.02;;;16.40;99.90;;;16.64;79.15;101361.94;5197789;28;20049;-85
2022/05/27 04:07:31;;;;;;;2.72;1.00;;;16.40;99.90;;;16.60;79.41;101362.72;5197021;28;20505;-86
2022/05/27 04:10:08;;;;;;;2.38;1.10;;;16.40;99.90;;;16.54;79.84;101356.47;5195269;28;20132;-85
2022/05/27 04:12:40;;;;;;;2.75;1.48;;;16.30;99.90;;;16.52;80.21;101362.56;5195515;28;20427;-86
2022/05/27 04:15:12;;;;;;;1.95;1.13;;;16.30;99.90;;;16.47;80.68;101362.47;5203305;28;20057;-85
2022/05/27 04:17:44;;;;;;;0.98;0.82;;;16.20;99.90;;;16.48;80.86;101351.09;5197691;28;20069;-86
2022/05/27 04:20:19;;;;;;;1.33;0.90;;;16.20;99.90;;;16.47;81.19;101351.94;5197912;28;20145;-85
2022/05/27 04:22:55;;;;;;;2.10;1.08;;;16.20;99.90;;;16.48;81.32;101356.34;5198594;28;20057;-85
2022/05/27 04:25:28;;;;;;;1.92;1.40;;;16.20;99.90;;;16.45;81.51;101356.31;5198939;28;20050;-85
2022/05/27 04:28:00;;;;;;;2.75;1.05;;;16.20;99.90;;;16.49;81.54;101351.97;5199107;28;20045;-85
2022/05/27 04:30:32;;;;;;;1.17;1.08;;;16.20;99.90;;;16.52;81.08;101342.41;5384239;22;20513;-74
2022/05/27 04:33:04;;;;;;;1.52;1.10;;;16.30;99.90;;;16.53;80.75;101344.19;5204294;28;20045;-73
2022/05/27 04:35:36;;;;;;;2.90;1.30;;;16.30;99.90;;;16.54;80.14;101348.56;5188371;28;20069;-73
2022/05/27 04:38:09;;;;;;;2.13;1.30;;;16.30;99.90;;;16.54;79.80;101356.47;5188101;28;20050;-74
2022/05/27 04:40:43;;;;;;;2.47;1.10;;;16.30;99.90;;;16.55;79.79;101347.72;5194972;28;20061;-74
2022/05/27 04:43:15;;;;;;;2.85;1.10;;;16.30;99.90;;;16.55;79.78;101344.19;5200790;28;20049;-73
2022/05/27 04:45:47;;;;;;;1.25;1.00;;;16.30;99.90;;;16.54;79.65;101348.56;5208475;28;20049;-75
2022/05/27 04:48:20;;;;;;;1.02;0.90;;;16.30;99.90;;;16.58;79.56;101348.66;5208490;28;20067;-74
2022/05/27 04:50:52;;;;;;;1.17;0.55;;;16.30;99.90;;;16.59;79.47;101353.94;5208627;28;20405;-74
2022/05/27 04:53:24;;;;;;;0.73;0.73;;;16.30;99.90;;;16.61;79.37;101356.59;5203968;28;20053;-74
2022/05/27 04:55:58;;;;;;;2.13;1.00;;;16.40;99.90;;;16.64;79.29;101356.66;5197080;28;20046;-73
2022/05/27 04:58:30;;;;;;;1.00;1.00;;;16.30;99.90;;;16.62;79.23;101348.72;5208472;28;20049;-76
2022/05/27 05:01:02;;;;;;;1.05;0.73;;;16.30;99.90;;;16.59;79.57;101355.69;5208663;28;20056;-73
2022/05/27 05:03:34;;;;;;;0.90;0.73;;;16.40;99.90;;;16.61;79.86;101348.69;5207869;28;20056;-73
2022/05/27 05:06:06;;;;;;;2.10;1.05;;;16.30;99.90;;;16.62;79.76;101340.81;5208347;28;20397;-74
2022/05/27 05:08:39;;;;;;;1.00;0.75;;;16.40;99.90;;;16.65;79.76;101347.91;5208129;28;20049;-74
2022/05/27 05:11:13;;;;;;;1.48;1.10;;;16.40;99.90;;;16.67;80.02;101354.09;5208220;28;20136;-73
2022/05/27 05:13:45;;;;;;;0.80;0.80;;;16.40;99.90;;;16.67;80.09;101351.44;5208028;28;20049;-74
2022/05/27 05:16:17;;;;;;;1.63;0.82;;;16.40;99.90;;;16.67;80.18;101351.44;5208177;28;20049;-74
2022/05/27 05:18:50;;;;;;;1.10;0.80;;;16.40;99.90;;;16.69;80.67;101354.97;5207773;28;20511;-74
2022/05/27 05:21:22;;;;;;;1.55;1.17;;;16.40;99.90;;;16.73;80.91;101351.59;5207941;28;20045;-74
2022/05/27 05:23:55;;;;;;;1.33;1.23;;;16.40;99.90;;;16.73;81.70;101351.59;5208601;28;20060;-74
2022/05/27 05:26:28;;;;;;;1.27;0.95;;;16.50;99.90;;;16.71;83.08;101353.31;5207836;28;20057;-74
2022/05/27 05:29:00;;;;;;;1.92;1.00;;;16.40;99.90;;;16.71;83.85;101358.59;5207631;28;20045;-74
2022/05/27 05:31:32;;;;;;;1.65;1.30;;;16.40;99.90;;;16.68;84.80;101353.22;5196319;28;20049;-74
2022/05/27 05:34:04;;;;;;;1.42;0.90;;;16.40;99.90;;;16.65;85.56;101358.44;5205487;28;20049;-74
2022/05/27 05:36:36;;;;;;;1.50;1.13;;;16.40;99.90;;;16.64;86.26;101359.31;5208084;28;20057;-74
2022/05/27 05:39:09;;;;;;;1.63;0.90;;;16.40;99.90;;;16.63;86.63;101355.78;5207312;28;20047;-74
2022/05/27 05:41:42;;;;;;;1.20;1.10;;;16.40;99.90;;;16.62;87.47;101353.09;5207672;28;20158;-74
2022/05/27 05:44:14;;;;;;;1.05;0.95;;;16.30;99.90;;;16.63;87.89;101361.06;5207788;28;20053;-74
2022/05/27 05:46:48;;;;;;;1.20;1.10;;;16.40;99.90;;;16.64;88.17;101361.94;5207615;28;20049;-74
2022/05/27 05:49:20;;;;;;;1.52;0.93;;;16.40;99.90;;;16.65;88.39;101368.97;5207108;28;20041;-74
2022/05/27 05:51:54;;;;;;;1.60;1.15;;;16.40;99.90;;;16.67;88.84;101372.50;5207452;28;20053;-74
2022/05/27 05:54:28;;;;;;;1.08;0.88;;;16.40;99.90;;;16.67;89.03;101373.38;5207424;28;20073;-73
2022/05/27 05:57:04;;;;;;;1.27;1.10;;;16.40;99.90;;;16.67;89.43;101372.50;5207552;28;20053;-73
2022/05/27 05:59:38;;;;;;;1.58;1.30;;;16.40;99.90;;;16.64;90.15;101372.47;5206954;28;20050;-69
2022/05/27 06:02:13;;;;;;;2.28;1.50;;;16.40;99.90;;;16.63;90.63;101368.06;5207447;28;20104;-69
2022/05/27 06:04:45;;;;;;;2.03;1.20;;;16.40;99.90;;;16.52;90.57;101376.63;5207004;28;20046;-69
2022/05/27 06:07:17;;;;;;;2.38;1.48;;;16.30;99.90;;;16.51;91.71;101368.69;5207286;28;20054;-70
2022/05/27 06:09:49;;;;;;;3.22;1.48;;;16.30;99.90;;;16.50;92.21;101370.44;5206711;28;20045;-70
2022/05/27 06:12:23;;;;;;;2.10;1.70;;;16.30;99.90;;;16.51;92.85;101369.59;5207139;28;20430;-69
2022/05/27 06:14:56;;;;;;;3.67;2.08;;;16.30;99.90;;;16.52;93.67;101368.72;5207020;28;20450;-69
2022/05/27 06:17:28;;;;;;;3.05;1.40;;;16.30;99.90;;;16.54;93.68;101372.25;5206567;28;20160;-70
2022/05/27 06:20:00;;;;;;;1.85;1.42;;;16.30;99.90;;;16.52;93.92;101376.63;5206846;28;20057;-69
2022/05/27 06:22:32;;;;;;;1.98;1.40;;;16.20;99.90;;;16.49;94.43;101379.19;5206724;28;20045;-69
2022/05/27 06:25:06;;;;;;;1.80;1.52;;;16.20;99.90;;;16.48;94.70;101377.41;5207173;28;20049;-69
2022/05/27 06:27:39;;;;;;;3.08;1.67;;;16.20;99.90;;;16.49;94.69;101373.03;5206808;28;20412;-69
2022/05/27 06:35:52;;;;;;;2.45;1.80;;;16.20;99.90;;;16.45;95.70;101382.63;5206740;28;20448;-70
2022/05/27 06:38:24;;;;;;;2.08;1.42;;;16.20;99.90;;;16.49;96.07;101389.69;5206164;28;20065;-71
2022/05/27 06:40:56;;;;;;;1.73;1.30;;;16.20;99.90;;;16.50;96.38;101386.25;5206768;28;20049;-68
2022/05/27 06:43:30;;;;;;;1.73;1.30;;;16.20;99.90;;;16.52;96.64;101389.78;5206654;28;20478;-68
2022/05/27 06:46:03;;;;;;;3.72;1.52;;;16.20;99.90;;;16.53;96.68;101391.56;5206710;28;20053;-68
2022/05/27 06:48:35;;;;;;;2.45;1.80;;;16.20;99.90;;;16.48;96.67;101398.47;5205635;28;20049;-69
2022/05/27 06:51:07;;;;;;;2.83;1.92;;;16.20;99.90;;;16.35;96.55;101406.06;5206539;28;20061;-69
2022/05/27 06:53:39;;;;;;;2.80;1.42;;;16.10;99.90;;;16.17;97.67;101411.81;5206477;28;20409;-69
2022/05/27 06:56:12;;;;;;;2.95;1.67;;;16.00;99.90;;;16.04;98.14;101418.59;5206150;28;20119;-67
2022/05/27 06:58:45;;;;;;;1.20;1.10;;;15.90;99.90;;;15.92;97.21;101421.81;5205644;28;20049;-69
2022/05/27 07:01:17;;;;;;;1.02;0.93;;;15.80;99.90;;;15.77;95.68;101416.19;5205951;28;20049;-69
2022/05/27 07:03:49;;;;;;;1.70;1.13;;;15.70;99.90;;;15.68;95.87;101421.25;5206280;28;20410;-69
2022/05/27 07:06:33;;;;;;;1.70;1.00;;;15.50;99.90;;;15.62;95.69;101431.59;5194149;28;20419;-69
2022/05/27 07:09:06;;;;;;;1.60;1.13;;;15.50;99.90;;;15.54;95.44;101433.13;5185863;28;20053;-68
2022/05/27 07:11:40;;;;;;;2.85;1.30;;;15.40;99.90;;;15.45;95.24;101434.69;5185167;28;20145;-69
2022/05/27 07:14:14;;;;;;;3.28;1.38;;;15.30;99.90;;;15.41;95.06;101427.56;5184716;28;20061;-71
2022/05/27 07:16:48;;;;;;;3.05;1.40;;;15.30;99.90;;;15.29;94.70;101429.88;5182526;28;20050;-70
2022/05/27 07:19:20;;;;;;;2.55;1.13;;;15.20;99.90;;;15.27;95.92;101435.94;5184516;28;20052;-71
2022/05/27 07:21:55;;;;;;;3.88;1.65;;;15.20;99.90;;;15.31;96.41;101435.16;5184961;28;20133;-68
2022/05/27 07:24:28;;;;;;;1.88;1.52;;;15.20;99.90;;;15.29;96.32;101432.50;5183469;28;20054;-68
2022/05/27 07:27:00;;;;;;;1.80;1.30;;;15.20;99.90;;;15.31;97.08;101436.03;5185302;28;20132;-68
2022/05/27 07:29:34;;;;;;;3.25;1.35;;;15.20;99.90;;;15.39;97.29;101439.78;5185059;28;20052;-70
2022/05/27 07:32:07;;;;;;;3.25;1.55;;;15.20;99.90;;;15.41;97.53;101432.81;5185477;28;20487;-68
2022/05/27 07:34:39;;;;;;;3.85;1.70;;;15.20;99.90;;;15.46;97.79;101441.72;5185051;28;20056;-69
2022/05/27 07:37:11;;;;;;;3.05;1.48;;;15.30;99.90;;;15.54;98.13;101448.88;5185728;28;20053;-72
2022/05/27 07:39:43;;;;;;;2.75;1.55;;;15.40;99.90;;;15.72;97.83;101463.41;5196490;28;20045;-73
2022/05/27 07:42:15;;;;;;;1.88;1.30;;;15.50;99.90;;;15.89;96.45;101448.03;5204865;28;20490;-68
2022/05/27 07:44:50;;;;;;;1.65;1.13;;;15.60;99.90;;;16.00;95.25;101457.06;5195555;28;20478;-69
2022/05/27 07:47:22;;;;;;;;;;;15.80;99.90;;;16.07;94.32;101462.47;5186765;28;20050;-70
2022/05/27 07:49:54;;;;;;;2.15;1.40;;;15.80;99.90;;;16.11;93.61;101464.31;5185294;28;20371;-71
2022/05/27 07:52:26;;;;;;;1.23;1.13;;;15.90;99.90;;;16.07;93.14;101470.34;5185349;28;20050;-72
2022/05/27 07:54:58;;;;;;;1.45;1.02;;;15.90;99.90;;;16.03;93.16;101461.47;5185448;28;20050;-70
2022/05/27 07:57:31;;;;;;;1.50;0.93;;;15.90;99.90;;;15.96;92.91;101470.09;5185104;28;20061;-71
2022/05/27 08:00:08;;;;;;;2.75;1.27;;;15.80;99.90;;;15.92;93.49;101470.88;5202380;28;20069;-71
2022/05/27 08:02:41;;;;;;;2.50;1.23;;;15.80;99.90;;;15.89;93.61;101469.06;5205027;28;20053;-70
2022/05/27 08:05:16;;;;;;;1.95;1.40;;;15.70;99.90;;;15.88;94.00;101462.03;5205905;28;20046;-70
2022/05/27 08:07:49;;;;;;;3.35;1.60;;;15.70;99.90;;;15.86;94.08;101474.25;5205415;28;20064;-71
2022/05/27 08:10:25;;;;;;;1.45;1.30;;;15.70;99.90;;;15.87;94.49;101472.50;5205521;28;20405;-74
2022/05/27 08:12:58;;;;;;;1.83;1.13;;;15.70;99.90;;;15.87;94.59;101470.78;5205688;28;20056;-72
2022/05/27 08:15:31;;;;;;;2.10;1.23;;;15.60;99.90;;;15.87;94.65;101476.03;5205532;28;20061;-71
2022/05/27 08:18:04;;;;;;;1.92;1.25;;;15.70;99.90;;;15.92;94.66;101477.03;5205328;28;20056;-71
2022/05/27 08:20:39;;;;;;;1.50;1.30;;;15.70;99.90;;;15.97;94.54;101472.78;5205375;28;20056;-72
2022/05/27 08:23:11;;;;;;;2.53;1.50;;;15.70;99.90;;;15.99;94.80;101464.91;5205575;28;20053;-72
2022/05/27 08:25:43;;;;;;;2.38;1.40;;;15.70;99.90;;;15.97;94.28;101467.53;5198815;28;20046;-73
2022/05/27 08:28:15;;;;;;;4.72;1.45;;;15.70;99.90;;;15.93;93.38;101473.53;5192476;28;20050;-70
2022/05/27 08:30:49;;;;;;;3.95;1.50;;;15.70;99.90;;;15.92;93.27;101474.41;5184127;28;20042;-70
2022/05/27 08:33:21;;;;;;;2.92;1.38;;;15.60;99.90;;;15.88;93.00;101469.03;5195430;28;20053;-71
2022/05/27 08:38:43;;;;;;;2.28;1.50;;;15.70;99.90;;;16.02;93.33;101470.22;5187065;28;20060;-72
2022/05/27 08:41:30;;;;;;;2.80;1.23;;;15.70;99.90;;;16.16;94.04;101473.19;5197150;28;20041;-71
2022/05/27 08:44:20;;;;;;;3.80;1.60;;;15.80;99.90;;;16.61;95.13;101469.78;5200579;28;20060;-72
2022/05/27 08:47:04;;;;;;;5.40;1.70;;;16.10;99.90;;;17.27;95.47;101477.25;5208211;28;20136;-69
2022/05/27 08:49:41;;;;;;;2.45;1.48;;;16.50;99.90;;;17.43;93.65;101473.16;5199931;28;20050;-69
2022/05/27 08:52:22;;;;;;;3.45;1.70;;;16.80;99.90;;;17.50;92.93;101475.91;5208952;28;20052;-69
2022/05/27 08:54:59;;;;;;;3.78;1.35;;;16.90;99.90;;;17.66;92.30;101476.16;5208616;28;20108;-69
2022/05/27 09:00:29;;;;;;;3.15;1.10;;;17.10;99.90;;;17.69;90.56;101478.88;5208121;28;20548;-70
2022/05/27 09:03:07;;;;;;;1.42;1.20;;;17.10;99.90;;;17.53;89.40;101478.59;5208888;28;20492;-70
2022/05/27 09:05:47;;;;;;;3.20;1.23;;;17.00;99.90;;;17.44;89.47;101480.19;5208386;28;20060;-69
2022/05/27 09:08:22;;;;;;;2.53;1.30;;;17.00;99.90;;;17.75;90.24;101481.66;5207812;28;20045;-70
2022/05/27 09:11:16;;;;;;;4.07;1.48;;;17.10;99.90;;;18.52;89.49;101483.63;5208270;28;20042;-69
2022/05/27 09:13:56;;;;;;;4.60;1.38;;;17.40;99.90;;;20.08;84.68;101483.50;5208375;28;20053;-70
2022/05/27 09:16:34;;;;;;;3.40;1.10;;;18.30;99.90;;;20.44;78.94;101485.50;5208139;28;20053;-70
2022/05/27 09:19:13;;;;;;;2.50;1.25;;;18.80;99.90;;;20.32;77.08;101491.59;5207953;28;20057;-70
2022/05/27 09:21:57;;;;;;;2.75;1.42;;;19.00;99.90;;;20.05;77.20;101486.13;5208241;28;20056;-70
2022/05/27 09:24:42;;;;;;;1.98;1.23;;;18.90;99.90;;;20.14;78.41;101480.00;5208029;28;20049;-71
2022/05/27 09:27:20;;;;;;;2.97;1.40;;;19.00;99.90;;;20.19;77.13;101492.41;5207850;28;20091;-70
2022/05/27 09:29:59;;;;;;;2.97;1.27;;;19.10;99.90;;;19.86;76.46;101485.13;5207784;28;20045;-70
2022/05/27 09:32:37;;;;;;;2.97;1.65;;;19.00;99.90;;;19.50;77.38;101490.97;5208002;28;20490;-70
2022/05/27 09:35:15;;;;;;;4.03;1.50;;;18.80;99.90;;;19.48;79.13;101487.41;5208147;28;20054;-70
2022/05/27 09:37:50;;;;;;;2.78;1.38;;;18.70;99.90;;;19.46;79.62;101495.31;5207734;28;20049;-69
2022/05/27 09:40:31;;;;;;;2.13;1.40;;;18.80;99.90;;;19.50;79.88;101475.09;5207473;28;20402;-70
2022/05/27 09:43:05;;;;;;;;;;;18.80;99.90;;;19.59;80.39;101476.97;5208390;28;20060;-71
2022/05/27 09:45:37;;;;;;;2.55;1.70;;;18.90;99.90;;;19.77;81.31;101477.13;5208177;28;20307;-67
2022/05/27 09:48:11;;;;;;;4.50;2.38;;;19.00;99.90;;;20.19;82.16;101479.16;5207798;28;20476;-69
2022/05/27 09:50:48;;;;;;;4.82;2.40;;;19.30;99.90;;;20.66;80.21;101469.72;5207549;28;20046;-71
2022/05/27 09:53:23;;;;;;;4.28;2.22;;;19.70;99.90;;;21.05;77.59;101474.28;5207486;28;20057;-70
2022/05/27 09:56:02;;;;;;;4.70;2.80;;;20.10;99.90;;;21.19;75.72;101471.66;5207752;28;20080;-68
2022/05/27 09:58:40;;;;;;;5.45;2.90;;;20.30;99.90;;;21.33;74.36;101470.84;5207329;28;20092;-68
2022/05/27 10:01:23;;;;;;;5.20;2.85;;;20.50;99.90;;;21.48;72.49;101464.66;5207343;28;20096;-68
2022/05/27 10:04:04;;;;;;;3.95;2.40;;;20.70;99.90;;;21.76;72.55;101469.97;5207636;28;20131;-68
2022/05/27 10:06:38;;;;;;;3.00;1.80;;;20.90;99.90;;;21.87;72.23;101454.91;5207586;28;20056;-67
2022/05/27 10:09:24;;;;;;;2.97;1.77;;;21.00;99.90;;;21.98;71.45;101454.91;5207402;28;20409;-67
2022/05/27 10:11:58;;;;;;;3.28;2.03;;;21.10;99.90;;;22.06;71.22;101459.31;5207190;28;20057;-68
2022/05/27 10:14:33;;;;;;;3.65;2.33;;;21.20;99.90;;;22.35;70.39;101461.91;5207062;28;20049;-67
2022/05/27 10:17:09;;;;;;;4.68;2.05;;;21.40;99.90;;;22.65;68.31;101466.25;5207915;28;20148;-69
2022/05/27 10:19:43;;;;;;;3.72;2.40;;;21.60;99.90;;;22.92;66.34;101459.06;5206764;28;20054;-62
2022/05/27 10:22:28;;;;;;;4.57;1.83;;;21.90;99.90;;;23.25;65.43;101452.63;5199896;28;20045;-64
2022/05/27 10:25:04;;;;;;;3.63;1.83;;;22.20;99.90;;;23.43;62.95;101451.63;5196745;28;20057;-64
2022/05/27 10:27:39;;;;;;;3.05;1.95;;;22.40;99.90;;;23.22;59.57;101447.34;5206740;28;20049;-67
2022/05/27 10:30:24;;;;;;;5.78;2.00;;;22.40;98.00;;;23.21;59.71;101450.88;5175036;28;20046;-66
2022/05/27 10:33:14;;;;;;;5.25;2.25;;;22.30;97.70;;;23.11;59.46;101451.84;5272486;23;20024;-68
2022/05/27 10:35:47;;;;;;;2.13;1.90;;;22.30;97.20;;;23.12;59.46;101442.97;5154499;28;20511;-69
2022/05/27 10:38:44;;;;;;;5.07;2.50;;;22.30;97.40;;;23.17;59.04;101443.84;5153588;28;20051;-69
2022/05/27 10:41:25;;;;;;;4.50;1.80;;;22.30;96.90;;;23.08;59.07;101451.84;5153529;28;20046;-69
2022/05/27 10:44:17;;;;;;;2.67;2.10;;;22.30;96.60;;;22.96;58.18;101444.88;5178331;28;20391;-69
2022/05/27 10:46:57;;;;;;;3.70;2.00;;;22.20;95.90;;;22.68;58.34;101444.06;5186065;28;20061;-66
2022/05/27 10:50:09;;;;;;;2.67;2.05;;;22.10;95.60;;;22.56;58.36;101436.16;5185867;28;20076;-68
2022/05/27 10:53:01;;;;;;;4.35;2.13;;;21.90;95.40;;;22.63;58.15;101429.94;5186001;28;20054;-70
2022/05/27 10:55:48;;;;;;;2.75;1.98;;;22.00;95.30;;;22.77;58.16;101428.09;5182901;28;20069;-68
2022/05/27 11:02:06;;;;;;;2.75;1.60;;;22.20;95.00;;;22.92;57.36;101433.34;5165440;28;20125;-65
2022/05/27 11:05:10;;;;;;;3.90;2.00;;;22.20;94.70;;;23.13;56.98;101421.69;5165865;28;20089;-65
2022/05/27 11:08:07;;;;;;;2.58;2.10;;;22.40;94.50;;;23.19;56.39;101407.47;5165901;28;20595;-68
2022/05/27 11:10:51;;;;;;;3.63;1.92;;;22.40;94.20;;;23.17;55.76;101402.16;5159702;28;20047;-66